Accueil
METAR-TAF:

METAR-TAF

Aéroports :

Aéroport de Gênes-Christophe Colomb

Gênes, Italie

latitude: 44-25N, longitude: 008-51E, altitude: 2 m

Observation

Le bulletin a été fait il y a 40 minutes, à 23:50 UTC
Vent 16 kt de est/nord-est, variant entre nord et est
Température 8°C
Humidité 46%
Pression 1005 hPa
Visibilité 10 km ou plus
pas de nuages en-dessous de 1500 mètres et pas de cumulonimbus.

METAR: LIMJ 272350Z 06016KT 010V090 CAVOK 08/M03 Q1005

Heure: 01:30 (00:30 UTC)

Prévision

Le bulletin a été fait il y a 1 heure et 30 minutes, à 23:00 UTC
Prévision valable du 28 à 00 UTC au 28 à 24 UTC
Vent 10 kt de nord/nord-est
Visibilité 10 km ou plus
pas de nuages en-dessous de 1500 mètres et pas de cumulonimbus.
Evoluant progressivement
du 28 à 08 UTC au 28 à 10 UTC
Vent 5 kt de direction variable

TAF: LIMJ 272300Z 2800/2824 03010KT CAVOK BECMG 2808/2810 VRB05KT

Observations et prévisions météorologiques de plus de 4000 aéroports (messages METAR et TAF).

Les stations disponibles sont représentées par des disques jaunes et rouges sur la carte.

Passer la souris dessus pour voir le nom de la station.

Cliquer dessus pour voir les observations et prévisions météorologiques.

Pour changer de carte: cliquez sur les boutons verts avec une croix noire pour zoomer, sur le bouton vert avec un tiret pour effectuer un zoom arrière, ou sur les flèches vertes pour les cartes adjacentes.


METAR-TAF: